Time;durP1;ratioP1;P1;durP2;ratioP2;P2;SDS_P1;SDS_P2;PMS_P1;PMS_P2;Temp;Humidity;BMP_temperature;BMP_pressure;BME280_temperature;BME280_humidity;BME280_pressure;Samples;Min_cycle;Max_cycle;Signal;HPM_P1;HPM_P2
2022/04/27 00:00:06;;;;;;;15.73;10.68;;;9.70;99.90;;;;;;5073418;28;20436;-55
2022/04/27 00:02:31;;;;;;;19.13;10.25;;;9.70;99.90;;;;;;5073338;28;20108;-57
2022/04/27 00:04:57;;;;;;;19.35;11.18;;;9.80;99.90;;;;;;5072191;28;20477;-55
2022/04/27 00:07:23;;;;;;;19.17;10.45;;;9.80;99.90;;;;;;5073877;28;20016;-56
2022/04/27 00:09:49;;;;;;;14.38;9.70;;;9.70;99.90;;;;;;5073550;28;20393;-56
2022/04/27 00:12:14;;;;;;;15.77;10.20;;;9.70;99.90;;;;;;5073665;28;20157;-56
2022/04/27 00:14:43;;;;;;;16.33;11.00;;;9.60;99.90;;;;;;5071606;28;20028;-56
2022/04/27 00:17:12;;;;;;;14.30;10.90;;;9.60;99.90;;;;;;5073440;28;20035;-55
2022/04/27 00:19:40;;;;;;;19.25;10.57;;;9.60;99.90;;;;;;5073494;28;20024;-55
2022/04/27 00:22:06;;;;;;;17.00;10.68;;;9.60;99.90;;;;;;5073284;28;20020;-55
2022/04/27 00:24:32;;;;;;;17.20;10.50;;;9.60;99.90;;;;;;5072853;28;20394;-56
2022/04/27 00:26:57;;;;;;;15.98;10.48;;;9.60;99.90;;;;;;5073469;28;20039;-55
2022/04/27 00:29:23;;;;;;;17.17;10.82;;;9.60;99.90;;;;;;5073008;28;20695;-55
2022/04/27 00:31:48;;;;;;;19.20;10.77;;;9.50;99.90;;;;;;5073189;28;20260;-56
2022/04/27 00:34:14;;;;;;;17.42;10.63;;;9.50;99.90;;;;;;5073052;28;20127;-56
2022/04/27 00:36:40;;;;;;;19.33;11.32;;;9.60;99.90;;;;;;5071501;28;20028;-55
2022/04/27 00:39:08;;;;;;;18.70;10.98;;;9.60;99.90;;;;;;5072885;28;20021;-55
2022/04/27 00:41:34;;;;;;;18.60;10.95;;;9.60;99.90;;;;;;5073726;28;20033;-56
2022/04/27 00:44:00;;;;;;;18.17;11.75;;;9.60;99.90;;;;;;5073269;28;20076;-56
2022/04/27 00:46:25;;;;;;;19.80;11.38;;;9.60;99.90;;;;;;5073182;28;20103;-56
2022/04/27 00:48:51;;;;;;;19.58;12.15;;;9.50;99.90;;;;;;5071903;28;20025;-56
2022/04/27 00:51:19;;;;;;;16.38;11.73;;;9.50;99.90;;;;;;5073136;28;20039;-56
2022/04/27 00:53:45;;;;;;;18.08;11.60;;;9.50;99.90;;;;;;5072960;28;20108;-55
2022/04/27 00:56:12;;;;;;;16.83;11.48;;;9.40;99.90;;;;;;5072511;28;20060;-56
2022/04/27 00:58:37;;;;;;;16.20;11.85;;;9.40;99.90;;;;;;5071013;28;20042;-56
2022/04/27 01:01:05;;;;;;;23.15;12.70;;;9.30;99.90;;;;;;5073218;28;20021;-56
2022/04/27 01:03:35;;;;;;;17.63;11.43;;;9.40;99.90;;;;;;5072879;28;20020;-55
2022/04/27 01:06:02;;;;;;;16.42;11.32;;;9.40;99.90;;;;;;5072573;28;20042;-56
2022/04/27 01:08:27;;;;;;;17.00;11.07;;;9.40;99.90;;;;;;5072944;28;20473;-55
2022/04/27 01:10:53;;;;;;;17.33;11.75;;;9.40;99.90;;;;;;5071674;28;20111;-55
2022/04/27 01:13:19;;;;;;;20.25;12.68;;;9.40;99.90;;;;;;5072400;28;20020;-55
2022/04/27 01:15:44;;;;;;;15.82;11.43;;;9.30;99.90;;;;;;5072736;28;20021;-56
2022/04/27 01:18:10;;;;;;;17.13;12.23;;;9.30;99.90;;;;;;5073208;28;20085;-55
2022/04/27 01:20:44;;;;;;;22.13;12.45;;;9.20;99.90;;;;;;5072599;28;20425;-55
2022/04/27 01:23:14;;;;;;;16.13;12.02;;;9.20;99.90;;;;;;5072580;28;20598;-56
2022/04/27 01:25:59;;;;;;;22.38;13.23;;;9.20;99.90;;;;;;5072269;28;20028;-56
2022/04/27 01:28:29;;;;;;;21.75;12.50;;;9.20;99.90;;;;;;5070903;28;20033;-55
2022/04/27 01:31:00;;;;;;;20.85;12.90;;;9.20;99.90;;;;;;5071005;28;20024;-54
2022/04/27 01:33:27;;;;;;;16.55;12.02;;;9.30;99.90;;;;;;5072020;28;20044;-56
2022/04/27 01:35:52;;;;;;;17.10;11.77;;;9.20;99.90;;;;;;5071745;28;20017;-55
2022/04/27 01:38:18;;;;;;;23.25;13.68;;;9.20;99.90;;;;;;5071941;28;20040;-56
2022/04/27 01:40:47;;;;;;;21.83;13.95;;;9.10;99.90;;;;;;5072837;28;20020;-56
2022/04/27 01:43:19;;;;;;;21.42;13.98;;;9.10;99.90;;;;;;5072572;28;20073;-56
2022/04/27 01:45:48;;;;;;;22.55;15.10;;;9.00;99.90;;;;;;5087671;28;20481;-55
2022/04/27 01:48:14;;;;;;;18.70;14.35;;;9.00;99.90;;;;;;5072357;28;20052;-56
2022/04/27 01:50:40;;;;;;;19.92;14.32;;;9.00;99.90;;;;;;5072593;28;20040;-56
2022/04/27 01:55:50;;;;;;;22.45;14.23;;;8.90;99.90;;;;;;5072217;28;20518;-55
2022/04/27 01:58:17;;;;;;;20.38;14.52;;;8.90;99.90;;;;;;5071695;28;20028;-55
2022/04/27 02:00:43;;;;;;;25.70;15.38;;;8.90;99.90;;;;;;5072033;28;20029;-56
2022/04/27 02:03:08;;;;;;;28.05;15.82;;;8.80;99.90;;;;;;5072488;28;20025;-56
2022/04/27 02:05:34;;;;;;;20.38;14.18;;;8.80;99.90;;;;;;5072002;28;20017;-55
2022/04/27 02:08:00;;;;;;;19.25;15.13;;;8.70;99.90;;;;;;5072032;28;20024;-55
2022/04/27 02:10:26;;;;;;;20.92;15.48;;;8.70;99.90;;;;;;5075463;28;20116;-56
2022/04/27 02:12:52;;;;;;;24.13;15.82;;;8.60;99.90;;;;;;5076496;28;20070;-55
2022/04/27 02:15:17;;;;;;;21.70;16.05;;;8.60;99.90;;;;;;5074670;28;20021;-55
2022/04/27 02:17:43;;;;;;;23.67;15.60;;;8.50;99.90;;;;;;5076516;28;20059;-55
2022/04/27 02:20:09;;;;;;;24.00;15.30;;;8.50;99.90;;;;;;5076105;28;20017;-56
2022/04/27 02:22:34;;;;;;;21.13;16.25;;;8.50;99.90;;;;;;5074211;28;20029;-55
2022/04/27 02:25:01;;;;;;;27.33;17.10;;;8.40;99.90;;;;;;5075227;28;20075;-56
2022/04/27 02:27:27;;;;;;;24.38;16.73;;;8.40;99.90;;;;;;5074921;28;20063;-55
2022/04/27 02:29:54;;;;;;;23.80;17.02;;;8.40;99.90;;;;;;5074674;28;20017;-56
2022/04/27 02:32:20;;;;;;;24.08;17.23;;;8.40;99.90;;;;;;5076657;28;20099;-55
2022/04/27 02:34:45;;;;;;;27.48;17.17;;;8.40;99.90;;;;;;5075029;28;20072;-56
2022/04/27 02:37:11;;;;;;;23.80;17.15;;;8.30;99.90;;;;;;5074769;28;20039;-56
2022/04/27 02:39:36;;;;;;;28.50;16.98;;;8.30;99.90;;;;;;5074915;28;20107;-55
2022/04/27 02:42:03;;;;;;;25.65;17.48;;;8.20;99.90;;;;;;5073895;28;20028;-56
2022/04/27 02:44:28;;;;;;;27.00;18.13;;;8.20;99.90;;;;;;5074149;28;20082;-56
2022/04/27 02:46:54;;;;;;;23.63;17.13;;;8.10;99.90;;;;;;5075257;28;20393;-55
2022/04/27 02:52:06;;;;;;;27.67;18.45;;;8.10;99.90;;;;;;5074136;28;20114;-55
2022/04/27 02:54:32;;;;;;;27.42;18.55;;;8.00;99.90;;;;;;5075117;28;20024;-55
2022/04/27 02:56:57;;;;;;;27.42;18.40;;;8.00;99.90;;;;;;5074744;28;20073;-56
2022/04/27 02:59:23;;;;;;;28.50;19.63;;;8.00;99.90;;;;;;5074552;28;20020;-55
2022/04/27 03:01:49;;;;;;;27.60;18.98;;;7.90;99.90;;;;;;5074917;28;20031;-55
2022/04/27 03:04:20;;;;;;;28.65;18.75;;;7.90;99.90;;;;;;5074667;28;20037;-56
2022/04/27 03:06:45;;;;;;;27.75;19.70;;;7.80;99.90;;;;;;5074853;28;20091;-55
2022/04/27 03:09:11;;;;;;;26.42;19.50;;;7.80;99.90;;;;;;5074795;28;20460;-56
2022/04/27 03:11:36;;;;;;;30.63;20.35;;;7.80;99.90;;;;;;5074278;28;20024;-56
2022/04/27 03:14:02;;;;;;;33.88;20.27;;;7.80;99.90;;;;;;5074621;28;20029;-56
2022/04/27 03:16:28;;;;;;;29.65;20.35;;;7.80;99.90;;;;;;5074410;28;20500;-56
2022/04/27 03:18:53;;;;;;;29.00;19.88;;;7.80;99.90;;;;;;5074540;28;20028;-56
2022/04/27 03:21:19;;;;;;;30.17;19.30;;;7.80;99.90;;;;;;5073327;28;20029;-55
2022/04/27 03:23:45;;;;;;;34.47;22.65;;;7.70;99.90;;;;;;5072949;28;20036;-56
2022/04/27 03:26:10;;;;;;;31.58;21.50;;;7.70;99.90;;;;;;5074060;28;20037;-56
2022/04/27 03:28:36;;;;;;;29.27;20.77;;;7.80;99.90;;;;;;5074438;28;20150;-56
2022/04/27 03:31:02;;;;;;;29.30;20.83;;;7.70;99.90;;;;;;5074402;28;20385;-56
2022/04/27 03:33:28;;;;;;;34.25;21.95;;;7.60;99.90;;;;;;5074188;28;20053;-55
2022/04/27 03:35:54;;;;;;;28.58;20.98;;;7.60;99.90;;;;;;5074329;28;20025;-55
2022/04/27 03:38:19;;;;;;;29.83;20.85;;;7.60;99.90;;;;;;5074891;28;20103;-55
2022/04/27 03:40:48;;;;;;;26.90;21.55;;;7.60;99.90;;;;;;5074862;28;20031;-56
2022/04/27 03:43:14;;;;;;;31.50;21.55;;;7.50;99.90;;;;;;5074167;28;20028;-56
2022/04/27 03:45:40;;;;;;;35.25;22.20;;;7.50;99.90;;;;;;5074011;28;20036;-56
2022/04/27 03:48:06;;;;;;;33.78;20.95;;;7.50;99.90;;;;;;5074011;28;20016;-57
2022/04/27 03:50:33;;;;;;;31.85;21.88;;;7.50;99.90;;;;;;5073682;28;20067;-55
2022/04/27 03:52:59;;;;;;;31.13;21.70;;;7.50;99.90;;;;;;5073283;28;20074;-55
2022/04/27 03:55:25;;;;;;;33.92;22.52;;;7.50;99.90;;;;;;5074479;28;20035;-56
2022/04/27 03:57:51;;;;;;;31.00;22.92;;;7.50;99.90;;;;;;5074222;28;20036;-56
2022/04/27 04:00:17;;;;;;;35.13;22.27;;;7.40;99.90;;;;;;5073786;28;20074;-56
2022/04/27 04:02:42;;;;;;;34.78;23.10;;;7.40;99.90;;;;;;5074292;28;20028;-56
2022/04/27 04:05:08;;;;;;;37.75;22.40;;;7.40;99.90;;;;;;5073463;28;20050;-55
2022/04/27 04:07:34;;;;;;;32.88;23.35;;;7.30;99.90;;;;;;5073615;28;20091;-56
2022/04/27 04:10:00;;;;;;;37.33;23.77;;;7.30;99.90;;;;;;5073909;28;20029;-55
2022/04/27 04:12:26;;;;;;;41.22;24.33;;;7.30;99.90;;;;;;5073768;28;20374;-55
2022/04/27 04:14:51;;;;;;;31.75;22.90;;;7.30;99.90;;;;;;5074030;28;20043;-55
2022/04/27 04:17:18;;;;;;;33.13;22.98;;;7.30;99.90;;;;;;5073543;28;20024;-55
2022/04/27 04:19:44;;;;;;;37.15;24.05;;;7.30;99.90;;;;;;5073610;28;20082;-56
2022/04/27 04:22:09;;;;;;;32.50;23.48;;;7.30;99.90;;;;;;5073548;28;20028;-55
2022/04/27 04:24:35;;;;;;;37.03;24.00;;;7.30;99.90;;;;;;5073176;28;20035;-56
2022/04/27 04:30:02;;;;;;;34.45;22.92;;;7.30;99.90;;;;;;5050691;28;20025;-55
2022/04/27 04:32:27;;;;;;;34.58;22.98;;;7.30;99.90;;;;;;5068401;28;20063;-55
2022/04/27 04:34:53;;;;;;;34.13;23.73;;;7.30;99.90;;;;;;5073142;28;20045;-55
2022/04/27 04:37:18;;;;;;;37.90;23.85;;;7.40;99.90;;;;;;5073235;28;20459;-56
2022/04/27 04:39:44;;;;;;;41.03;23.45;;;7.40;99.90;;;;;;5073023;28;20048;-55
2022/04/27 04:42:10;;;;;;;36.85;23.50;;;7.30;99.90;;;;;;5073337;28;20037;-56
2022/04/27 04:44:35;;;;;;;35.85;23.42;;;7.30;99.90;;;;;;5072725;28;20077;-55
2022/04/27 04:47:01;;;;;;;44.08;24.88;;;7.30;99.90;;;;;;5072555;28;20041;-55
2022/04/27 04:49:28;;;;;;;40.55;24.75;;;7.30;99.90;;;;;;5071642;28;20071;-55
2022/04/27 04:51:53;;;;;;;37.40;25.27;;;7.40;99.90;;;;;;5071460;28;20056;-56
2022/04/27 04:54:19;;;;;;;32.50;22.67;;;7.50;99.90;;;;;;5072423;28;20016;-56
2022/04/27 04:56:45;;;;;;;33.22;23.60;;;7.50;99.90;;;;;;5072000;28;20377;-55
2022/04/27 04:59:10;;;;;;;32.17;22.52;;;7.50;99.90;;;;;;5072792;28;20044;-56
2022/04/27 05:01:36;;;;;;;39.22;23.75;;;7.50;99.90;;;;;;5072992;28;20027;-56
2022/04/27 05:04:01;;;;;;;37.45;23.48;;;7.40;99.90;;;;;;5070343;28;20056;-56
2022/04/27 05:06:27;;;;;;;36.10;23.30;;;7.40;99.90;;;;;;5071946;28;20493;-55
2022/04/27 05:08:53;;;;;;;36.28;24.35;;;7.40;99.90;;;;;;5070499;28;20650;-55
2022/04/27 05:11:19;;;;;;;37.90;23.98;;;7.40;99.90;;;;;;5072042;28;20027;-55
2022/04/27 05:13:44;;;;;;;36.70;23.02;;;7.50;99.90;;;;;;5071774;28;20016;-55
2022/04/27 05:16:10;;;;;;;34.20;23.50;;;7.40;99.90;;;;;;5071925;28;20477;-55
2022/04/27 05:18:35;;;;;;;36.85;24.20;;;7.50;99.90;;;;;;5071532;28;20031;-56
2022/04/27 05:21:01;;;;;;;36.55;24.67;;;7.70;99.90;;;;;;5071718;28;20035;-55
2022/04/27 05:23:27;;;;;;;43.45;24.88;;;8.00;99.90;;;;;;5068250;28;20082;-55
2022/04/27 05:25:53;;;;;;;40.10;24.92;;;8.00;99.90;;;;;;5069922;28;20104;-55
2022/04/27 05:28:18;;;;;;;38.00;23.95;;;8.00;99.90;;;;;;5066076;28;20031;-55
2022/04/27 05:33:28;;;;;;;31.65;22.85;;;7.90;99.90;;;;;;5061374;28;20040;-56
2022/04/27 05:35:53;;;;;;;35.92;21.85;;;7.90;99.90;;;;;;5060954;28;20033;-56
2022/04/27 05:38:19;;;;;;;32.85;22.45;;;7.90;99.90;;;;;;5057237;28;20029;-56
2022/04/27 05:40:44;;;;;;;38.88;22.38;;;7.90;99.90;;;;;;5061274;28;20077;-56
2022/04/27 05:43:10;;;;;;;30.13;21.63;;;8.00;99.90;;;;;;5062251;28;20086;-55
2022/04/27 05:45:36;;;;;;;42.05;22.55;;;8.20;99.90;;;;;;5059386;28;20040;-55
2022/04/27 05:48:02;;;;;;;37.63;21.20;;;8.30;99.90;;;;;;5060616;28;20417;-56
2022/04/27 05:50:28;;;;;;;31.20;20.83;;;8.40;99.90;;;;;;5054924;28;20036;-56
2022/04/27 05:53:00;;;;;;;34.25;21.15;;;8.50;99.90;;;;;;5063423;28;20029;-56
2022/04/27 05:55:25;;;;;;;30.08;20.25;;;8.60;99.90;;;;;;5064681;28;20178;-56
2022/04/27 05:57:51;;;;;;;33.03;20.60;;;8.70;99.90;;;;;;5060767;28;21936;-56
2022/04/27 06:00:18;;;;;;;36.45;19.33;;;8.80;99.90;;;;;;5080195;28;20354;-56
2022/04/27 06:02:44;;;;;;;30.88;19.42;;;8.90;99.90;;;;;;5058104;28;20028;-56
2022/04/27 06:05:10;;;;;;;32.10;19.27;;;8.90;99.90;;;;;;5061434;28;20042;-56
2022/04/27 06:07:36;;;;;;;30.60;18.88;;;8.90;99.90;;;;;;5063488;28;20422;-55
2022/04/27 06:10:09;;;;;;;31.90;18.40;;;9.00;99.90;;;;;;5053139;28;20173;-55
2022/04/27 06:12:42;;;;;;;32.00;17.52;;;9.10;99.90;;;;;;5051986;28;20043;-55
2022/04/27 06:15:12;;;;;;;24.17;16.67;;;9.20;99.90;;;;;;5055613;28;20032;-55
2022/04/27 06:17:37;;;;;;;24.85;17.05;;;9.30;99.90;;;;;;5056355;28;20036;-55
2022/04/27 06:20:03;;;;;;;32.70;17.33;;;9.50;99.90;;;;;;5059004;28;20401;-55
2022/04/27 06:22:29;;;;;;;27.58;16.15;;;9.60;99.90;;;;;;5057841;28;20486;-55
2022/04/27 06:24:54;;;;;;;29.88;15.30;;;9.80;99.90;;;;;;5056973;28;20037;-56
2022/04/27 06:27:20;;;;;;;30.48;15.60;;;10.00;99.90;;;;;;5046521;28;20028;-56
2022/04/27 06:29:46;;;;;;;23.75;13.73;;;10.20;99.90;;;;;;5056329;28;20420;-55
2022/04/27 06:32:12;;;;;;;23.23;13.23;;;10.30;99.90;;;;;;5058185;28;20044;-55
2022/04/27 06:34:37;;;;;;;22.27;13.93;;;10.40;99.90;;;;;;5049809;28;20063;-55
2022/04/27 06:37:03;;;;;;;21.13;13.77;;;10.30;99.90;;;;;;5059494;28;20035;-55
2022/04/27 06:39:29;;;;;;;29.17;14.15;;;10.40;99.90;;;;;;5057449;28;20393;-55
2022/04/27 06:41:54;;;;;;;21.27;13.80;;;10.30;99.90;;;;;;5062103;28;20111;-55
2022/04/27 06:44:20;;;;;;;21.08;13.77;;;10.20;99.90;;;;;;5060695;28;20088;-55
2022/04/27 06:46:45;;;;;;;19.83;11.73;;;10.30;99.90;;;;;;5063380;28;20032;-55
2022/04/27 06:49:11;;;;;;;20.42;12.35;;;10.30;99.90;;;;;;5053962;28;20337;-55
2022/04/27 06:51:37;;;;;;;21.30;12.23;;;10.30;99.90;;;;;;5061124;28;20950;-55
2022/04/27 06:54:03;;;;;;;18.92;12.30;;;10.40;99.90;;;;;;5057090;28;20070;-55
2022/04/27 06:56:29;;;;;;;17.08;11.80;;;10.60;99.90;;;;;;5064018;28;20477;-54
2022/04/27 06:58:55;;;;;;;23.35;12.15;;;10.60;99.90;;;;;;5080588;28;20036;-54
2022/04/27 07:01:21;;;;;;;20.05;12.38;;;10.70;99.90;;;;;;5065939;28;20021;-54
2022/04/27 07:03:47;;;;;;;17.42;12.18;;;10.70;99.90;;;;;;5064316;28;20045;-54
2022/04/27 07:06:13;;;;;;;19.63;10.73;;;10.70;99.90;;;;;;5063378;28;20052;-55
2022/04/27 07:08:39;;;;;;;16.80;10.93;;;11.00;99.90;;;;;;5064812;28;20379;-55
2022/04/27 07:11:04;;;;;;;17.77;10.25;;;11.50;99.90;;;;;;5061590;28;20165;-56
2022/04/27 07:13:30;;;;;;;17.52;9.88;;;12.60;99.90;;;;;;5061108;28;20515;-56
2022/04/27 07:16:01;;;;;;;18.75;9.32;;;13.80;99.90;;;;;;5061445;28;20109;-56
2022/04/27 07:18:29;;;;;;;14.75;9.23;;;14.90;99.90;;;;;;5068646;28;20036;-56
2022/04/27 07:20:54;;;;;;;16.88;9.07;;;16.10;99.90;;;;;;5063722;28;20036;-56
2022/04/27 07:23:20;;;;;;;14.30;8.65;;;17.40;98.40;;;;;;5062869;28;20755;-56
2022/04/27 07:25:45;;;;;;;14.25;8.77;;;17.70;96.50;;;;;;5064678;28;20033;-56
2022/04/27 07:28:11;;;;;;;16.10;10.07;;;17.60;95.60;;;;;;5061100;28;20039;-56
2022/04/27 07:30:37;;;;;;;14.88;9.57;;;17.70;95.00;;;;;;5062460;28;20103;-57
2022/04/27 07:33:03;;;;;;;15.68;9.52;;;17.80;94.60;;;;;;5056480;28;21661;-56
2022/04/27 07:35:29;;;;;;;12.88;8.80;;;17.80;94.50;;;;;;5056393;28;20105;-56
2022/04/27 07:37:54;;;;;;;18.15;9.25;;;17.90;93.80;;;;;;5063647;28;20641;-56
2022/04/27 07:40:20;;;;;;;13.82;8.57;;;17.80;93.90;;;;;;5060161;28;20097;-57
2022/04/27 07:42:47;;;;;;;12.07;8.80;;;17.90;93.50;;;;;;5057297;28;20492;-57
2022/04/27 07:45:13;;;;;;;15.82;8.63;;;18.30;92.20;;;;;;5062408;28;20060;-56
2022/04/27 07:47:44;;;;;;;16.95;8.65;;;18.70;91.30;;;;;;5060089;28;20070;-56
2022/04/27 07:50:11;;;;;;;12.82;8.02;;;18.60;91.80;;;;;;5058402;28;20398;-56
2022/04/27 07:52:37;;;;;;;13.77;7.63;;;19.50;90.40;;;;;;5060182;28;20508;-56
2022/04/27 07:55:04;;;;;;;10.93;7.50;;;19.80;88.10;;;;;;5057788;28;20025;-56
2022/04/27 07:57:33;;;;;;;9.30;6.53;;;19.40;87.00;;;;;;5057312;28;20124;-57
2022/04/27 08:00:00;;;;;;;10.48;6.53;;;18.70;89.00;;;;;;5058033;28;20107;-57
2022/04/27 08:02:26;;;;;;;7.93;5.57;;;19.00;87.90;;;;;;5057324;28;20074;-57
2022/04/27 08:04:52;;;;;;;11.77;6.15;;;19.40;86.30;;;;;;5051029;28;20485;-56
2022/04/27 08:07:17;;;;;;;11.00;6.25;;;20.00;84.00;;;;;;5057049;28;20020;-57
2022/04/27 08:09:43;;;;;;;9.77;5.70;;;20.00;83.10;;;;;;5060768;28;20021;-57
2022/04/27 08:12:09;;;;;;;20.95;14.07;;;20.10;82.60;;;;;;5053329;28;20024;-57
2022/04/27 08:14:37;;;;;;;7.18;4.90;;;20.60;80.80;;;;;;5052718;28;20115;-57
2022/04/27 08:17:04;;;;;;;9.95;4.88;;;20.50;78.90;;;;;;5054327;28;20025;-56
2022/04/27 08:19:29;;;;;;;13.32;5.25;;;20.40;79.20;;;;;;5056578;28;20021;-56
2022/04/27 08:21:55;;;;;;;13.10;5.22;;;20.30;78.00;;;;;;5061193;28;20033;-56
2022/04/27 08:24:21;;;;;;;6.03;4.50;;;19.90;78.00;;;;;;5060871;28;20119;-56
2022/04/27 08:26:50;;;;;;;8.27;4.70;;;19.50;79.40;;;;;;5054233;28;20029;-56
2022/04/27 08:29:16;;;;;;;9.05;5.45;;;19.20;81.30;;;;;;5049347;28;20505;-56
2022/04/27 08:31:42;;;;;;;8.02;5.38;;;19.90;79.00;;;;;;5048087;28;20274;-58
2022/04/27 08:34:07;;;;;;;13.63;4.68;;;20.10;78.60;;;;;;5048269;28;20397;-57
2022/04/27 08:36:34;;;;;;;8.05;4.80;;;20.00;77.30;;;;;;5050545;28;20063;-58
2022/04/27 08:39:00;;;;;;;10.23;4.70;;;20.60;77.90;;;;;;5059965;28;20040;-57
2022/04/27 08:41:28;;;;;;;7.47;4.40;;;21.00;74.10;;;;;;5050661;28;20032;-58
2022/04/27 08:43:54;;;;;;;7.00;4.00;;;21.10;74.80;;;;;;5057897;28;20044;-57
2022/04/27 08:46:20;;;;;;;8.68;4.35;;;21.50;72.50;;;;;;5058604;28;20410;-57
2022/04/27 08:48:47;;;;;;;7.53;4.57;;;21.20;71.20;;;;;;5055107;28;20717;-57
2022/04/27 08:51:13;;;;;;;8.57;3.80;;;21.00;73.20;;;;;;5054171;28;20024;-57
2022/04/27 08:53:39;;;;;;;6.03;3.40;;;20.60;72.60;;;;;;5059026;28;20043;-58
2022/04/27 08:56:04;;;;;;;9.20;4.05;;;20.70;72.80;;;;;;5057193;28;20145;-57
2022/04/27 08:58:30;;;;;;;8.02;3.78;;;21.00;70.90;;;;;;5058202;28;20033;-58
2022/04/27 09:00:56;;;;;;;6.50;3.65;;;20.70;70.70;;;;;;5053865;28;20723;-57
2022/04/27 09:03:23;;;;;;;6.93;4.10;;;20.50;72.10;;;;;;5060929;28;20374;-58
2022/04/27 09:05:54;;;;;;;10.82;4.07;;;21.10;71.90;;;;;;5051896;28;20504;-57
2022/04/27 09:08:20;;;;;;;9.38;3.50;;;21.70;68.90;;;;;;5058685;28;20027;-58
2022/04/27 09:10:46;;;;;;;5.60;3.88;;;21.70;66.20;;;;;;5056865;28;20033;-58
2022/04/27 09:13:12;;;;;;;7.20;4.20;;;21.70;68.60;;;;;;5054151;28;20519;-58
2022/04/27 09:15:39;;;;;;;6.30;3.65;;;21.30;69.30;;;;;;5050516;28;20024;-58
2022/04/27 09:21:02;;;;;;;5.68;4.05;;;21.40;69.10;;;;;;5057397;28;20142;-57
2022/04/27 09:23:39;;;;;;;8.65;3.97;;;21.30;67.80;;;;;;5055590;28;20036;-57
2022/04/27 09:26:19;;;;;;;6.35;3.40;;;20.90;67.60;;;;;;5053122;28;20111;-57
2022/04/27 09:28:53;;;;;;;6.20;3.80;;;21.20;68.60;;;;;;5057832;28;20013;-58
2022/04/27 09:31:33;;;;;;;10.10;4.18;;;21.40;68.30;;;;;;5058828;28;20027;-57
2022/04/27 09:34:03;;;;;;;4.57;3.38;;;21.00;67.20;;;;;;5054242;28;20555;-57
2022/04/27 09:36:29;;;;;;;6.22;3.80;;;21.60;67.90;;;;;;5058338;28;20028;-58
2022/04/27 09:38:57;;;;;;;9.57;4.25;;;21.90;65.40;;;;;;5055700;28;20088;-58
2022/04/27 09:41:41;;;;;;;8.02;4.30;;;22.50;64.60;;;;;;5056337;28;20043;-58
2022/04/27 09:44:30;;;;;;;8.77;4.78;;;22.60;63.80;;;;;;5054692;28;20115;-58
2022/04/27 09:46:57;;;;;;;7.43;4.00;;;22.40;63.90;;;;;;5059587;28;20599;-58
2022/04/27 09:49:23;;;;;;;7.22;3.95;;;21.50;66.60;;;;;;5061963;28;20020;-58
2022/04/27 09:51:55;;;;;;;5.45;4.50;;;21.20;67.70;;;;;;5059650;28;20020;-58
2022/04/27 09:54:28;;;;;;;6.03;4.43;;;21.80;65.90;;;;;;5062649;28;20044;-58
2022/04/27 09:56:59;;;;;;;7.88;4.45;;;21.90;65.30;;;;;;5057162;28;20664;-58
2022/04/27 09:59:32;;;;;;;7.93;4.40;;;21.90;64.90;;;;;;5054431;28;20055;-57
2022/04/27 10:02:00;;;;;;;8.50;4.40;;;21.20;67.00;;;;;;5050377;28;20098;-57
2022/04/27 10:04:31;;;;;;;9.13;4.20;;;20.70;67.20;;;;;;5049408;28;20040;-58
2022/04/27 10:07:01;;;;;;;6.60;4.50;;;21.20;67.80;;;;;;5058912;28;20017;-58
2022/04/27 10:09:28;;;;;;;10.05;4.03;;;21.60;65.60;;;;;;5057766;28;20684;-59
2022/04/27 10:11:59;;;;;;;5.00;4.50;;;21.70;65.00;;;;;;5052330;28;20036;-58
2022/04/27 10:14:26;;;;;;;9.65;4.63;;;22.40;64.80;;;;;;5060192;28;20432;-58
2022/04/27 10:16:52;;;;;;;7.30;4.20;;;22.60;62.60;;;;;;5057286;28;20155;-58
2022/04/27 10:19:18;;;;;;;5.90;3.67;;;22.60;63.40;;;;;;5056025;28;20547;-58
2022/04/27 10:21:59;;;;;;;18.55;4.40;;;22.70;62.80;;;;;;5057214;28;20025;-59
2022/04/27 10:24:34;;;;;;;6.57;4.10;;;22.90;61.50;;;;;;5057805;28;20024;-58
2022/04/27 10:27:15;;;;;;;10.93;4.07;;;22.60;61.00;;;;;;5062796;28;20028;-58
2022/04/27 10:29:44;;;;;;;8.27;4.40;;;23.20;60.50;;;;;;5060520;28;20031;-60
2022/04/27 10:32:10;;;;;;;7.07;4.30;;;23.50;62.00;;;;;;5069890;28;20028;-60
2022/04/27 10:34:35;;;;;;;8.98;4.50;;;23.20;59.60;;;;;;5063275;28;20509;-60
2022/04/27 10:37:03;;;;;;;6.78;4.13;;;23.40;61.10;;;;;;5068493;28;20099;-59
2022/04/27 10:39:33;;;;;;;5.68;4.43;;;23.80;60.00;;;;;;5066683;28;20397;-60
2022/04/27 10:42:04;;;;;;;6.53;4.10;;;23.60;58.90;;;;;;5070118;28;20512;-59
2022/04/27 10:44:51;;;;;;;6.55;4.72;;;23.10;61.80;;;;;;5065406;28;20095;-59
2022/04/27 10:47:21;;;;;;;11.45;5.47;;;23.70;59.30;;;;;;5066374;28;20046;-59
2022/04/27 10:49:50;;;;;;;7.45;4.72;;;24.10;59.30;;;;;;5069460;28;20503;-59
2022/04/27 10:52:22;;;;;;;7.28;4.45;;;23.80;58.50;;;;;;5064865;28;20031;-59
2022/04/27 10:54:48;;;;;;;6.78;4.05;;;24.00;58.20;;;;;;5064389;28;20184;-59
2022/04/27 10:57:16;;;;;;;5.88;4.68;;;23.60;59.50;;;;;;5057850;28;20037;-59
2022/04/27 10:59:50;;;;;;;6.97;4.43;;;22.80;59.80;;;;;;5074613;28;20509;-59
2022/04/27 11:02:34;;;;;;;9.38;4.80;;;22.20;61.50;;;;;;5080859;28;20036;-59
2022/04/27 11:05:21;;;;;;;9.52;5.85;;;22.00;62.00;;;;;;5070421;28;20549;-59
2022/04/27 11:08:15;;;;;;;7.32;5.03;;;22.60;59.60;;;;;;5060120;28;20028;-59
2022/04/27 11:10:41;;;;;;;6.05;4.70;;;23.80;58.60;;;;;;5059934;28;20029;-59
2022/04/27 11:13:11;;;;;;;8.85;5.53;;;23.80;58.50;;;;;;5071719;28;20028;-59
2022/04/27 11:15:37;;;;;;;8.75;5.60;;;23.70;58.80;;;;;;5079591;28;20766;-59
2022/04/27 11:18:04;;;;;;;8.85;5.60;;;23.60;57.30;;;;;;5074860;28;20059;-59
2022/04/27 11:20:34;;;;;;;9.23;5.35;;;24.10;57.60;;;;;;5067070;28;20020;-59
2022/04/27 11:23:03;;;;;;;7.00;5.32;;;24.50;56.40;;;;;;5065954;28;20133;-59
2022/04/27 11:25:30;;;;;;;8.13;5.18;;;24.00;57.40;;;;;;5073782;28;20024;-59
2022/04/27 11:27:57;;;;;;;10.35;5.53;;;24.10;57.50;;;;;;5065184;28;20096;-59
2022/04/27 11:30:24;;;;;;;6.47;5.53;;;24.10;57.30;;;;;;5069827;28;20025;-59
2022/04/27 11:32:51;;;;;;;8.55;5.15;;;24.10;57.20;;;;;;5073009;28;20036;-59
2022/04/27 11:35:18;;;;;;;7.80;5.47;;;24.10;57.30;;;;;;5070972;28;20045;-59
2022/04/27 11:37:44;;;;;;;10.45;5.88;;;24.10;58.20;;;;;;5070242;28;20123;-59
2022/04/27 11:40:13;;;;;;;9.82;5.90;;;24.00;57.80;;;;;;5074370;28;20039;-59
2022/04/27 11:42:47;;;;;;;8.32;6.10;;;24.50;57.80;;;;;;5077063;28;20078;-59
2022/04/27 11:45:25;;;;;;;10.15;5.93;;;24.60;57.00;;;;;;5067940;28;20131;-59
2022/04/27 11:48:04;;;;;;;9.50;6.68;;;24.50;56.10;;;;;;5064015;28;20414;-59
2022/04/27 11:50:32;;;;;;;6.95;5.60;;;24.50;55.50;;;;;;5065990;28;20071;-59
2022/04/27 11:53:01;;;;;;;9.15;6.65;;;24.20;55.70;;;;;;5071233;28;20355;-59
2022/04/27 11:55:27;;;;;;;9.07;5.95;;;25.20;55.20;;;;;;5067347;28;20439;-59
2022/04/27 11:57:53;;;;;;;12.50;6.60;;;25.00;56.10;;;;;;5070412;28;20024;-59
2022/04/27 12:00:20;;;;;;;9.10;6.00;;;24.70;56.40;;;;;;5070371;28;20029;-60
2022/04/27 12:02:47;;;;;;;10.20;6.45;;;25.10;56.40;;;;;;5069458;28;20116;-59
2022/04/27 12:05:14;;;;;;;7.80;6.40;;;25.70;54.80;;;;;;5072546;28;20090;-59
2022/04/27 12:07:39;;;;;;;8.93;6.45;;;26.10;54.20;;;;;;5070395;28;20362;-59
2022/04/27 12:10:10;;;;;;;8.77;5.97;;;26.50;53.40;;;;;;5065211;28;20028;-59
2022/04/27 12:12:38;;;;;;;7.00;6.20;;;26.70;53.50;;;;;;5064637;28;20029;-59
2022/04/27 12:15:11;;;;;;;7.40;6.00;;;26.50;52.80;;;;;;5051719;28;20520;-59
2022/04/27 12:17:41;;;;;;;8.13;6.47;;;26.20;53.00;;;;;;5056439;28;20475;-59
2022/04/27 12:20:08;;;;;;;8.88;6.90;;;26.20;54.10;;;;;;5051083;28;20025;-59
2022/04/27 12:22:33;;;;;;;7.75;6.90;;;26.70;52.10;;;;;;5051184;28;20017;-59
2022/04/27 12:25:05;;;;;;;9.25;7.05;;;25.10;54.30;;;;;;5051084;28;20457;-59
2022/04/27 12:27:31;;;;;;;8.55;6.45;;;24.30;55.00;;;;;;5083876;28;20017;-59
2022/04/27 12:30:05;;;;;;;7.45;6.75;;;23.40;56.40;;;;;;5059352;28;20027;-59
2022/04/27 12:32:32;;;;;;;9.90;6.13;;;23.90;56.70;;;;;;5068618;28;20029;-59
2022/04/27 12:37:53;;;;;;;8.80;6.45;;;24.60;55.60;;;;;;5071174;28;20078;-59
2022/04/27 12:40:19;;;;;;;10.77;6.53;;;24.20;55.80;;;;;;5070973;28;20028;-59
2022/04/27 12:43:02;;;;;;;8.50;7.00;;;23.70;56.20;;;;;;5071258;28;20056;-59
2022/04/27 12:45:29;;;;;;;7.32;6.40;;;23.00;57.50;;;;;;5070402;28;20035;-59
2022/04/27 12:47:55;;;;;;;7.47;6.40;;;23.30;58.60;;;;;;5070618;28;20051;-59
2022/04/27 12:50:20;;;;;;;11.52;7.15;;;23.00;59.20;;;;;;5070983;28;20517;-59
2022/04/27 12:52:47;;;;;;;8.57;6.70;;;23.70;58.60;;;;;;5070900;28;20059;-59
2022/04/27 12:55:15;;;;;;;9.35;7.25;;;24.30;57.30;;;;;;5069847;28;20032;-59